CNF weather

Tancredo Neves International Airport
Belo Horizonte, Minas Gerais, Brazil

Public forecast

Using degrees Celsius for public forecast. Weather courtesy of forecast.io.

Current aviation weather report (METAR) for Tancredo Neves International Airport

Retrieved 2020/06/05 16:00 UTC (29 minutes ago):

SBCF 051600Z 13005KT 9999 FEW040 24/14 Q1024

Aviation forecast (TAF) for Tancredo Neves International Airport

Retrieved 2020/06/05 12:00 UTC (4 hours ago):

TAF SBCF 050900Z 0512/0612 13006KT CAVOK TX25/0518Z TN16/0609Z BECMG 0513/0515 9000 SCT030 BECMG 0516/0518 09008KT 9999 BKN040 BECMG 0520/0522 CAVOK BECMG 0602/0604 12006KT BECMG 0610/0612 10008KT RMK PAY